createdAt,value
2023-02-05T00:00:59.687Z,0.00
2023-02-05T00:01:59.898Z,0.00
2023-02-05T00:03:00.102Z,0.00
2023-02-05T00:04:00.229Z,0.00
2023-02-05T00:05:00.399Z,0.00
2023-02-05T00:06:00.558Z,0.00
2023-02-05T00:07:00.764Z,0.00
2023-02-05T00:08:00.932Z,0.00
2023-02-05T00:09:01.088Z,0.00
2023-02-05T00:10:01.247Z,0.00
2023-02-05T00:11:01.435Z,0.00
2023-02-05T00:12:01.585Z,0.00
2023-02-05T00:13:01.753Z,0.00
2023-02-05T00:14:01.941Z,0.00
2023-02-05T00:15:02.092Z,0.00
2023-02-05T00:16:02.282Z,0.00
2023-02-05T00:17:02.407Z,0.00
2023-02-05T00:18:02.569Z,0.00
2023-02-05T00:19:02.743Z,0.00
2023-02-05T00:20:02.902Z,0.00
2023-02-05T00:21:03.054Z,0.00
2023-02-05T00:22:03.252Z,0.00
2023-02-05T00:23:03.431Z,0.00
2023-02-05T00:24:03.586Z,0.00
2023-02-05T00:25:03.752Z,0.00
2023-02-05T00:26:03.937Z,0.00
2023-02-05T00:27:04.092Z,0.00
2023-02-05T00:28:04.365Z,0.00
2023-02-05T00:29:04.450Z,0.00
2023-02-05T00:30:04.610Z,0.00
2023-02-05T00:31:04.851Z,0.00
2023-02-05T00:32:04.933Z,0.00
2023-02-05T00:33:05.080Z,0.00
2023-02-05T00:34:05.304Z,0.00
2023-02-05T00:35:05.451Z,0.00
2023-02-05T00:36:05.647Z,0.00
2023-02-05T00:37:05.802Z,0.00
2023-02-05T00:38:05.952Z,0.00
2023-02-05T00:39:06.124Z,0.00
2023-02-05T00:40:06.295Z,0.00
2023-02-05T00:41:06.440Z,0.00
2023-02-05T00:42:06.600Z,0.00
2023-02-05T00:43:06.759Z,0.00
2023-02-05T00:44:06.975Z,0.00
2023-02-05T00:45:07.131Z,0.00
2023-02-05T00:46:07.367Z,0.00
2023-02-05T00:47:07.488Z,0.00
2023-02-05T00:48:07.698Z,0.00
2023-02-05T00:49:07.868Z,0.00
2023-02-05T00:50:08.025Z,0.00
2023-02-05T00:51:08.221Z,0.00
2023-02-05T00:52:08.376Z,0.00
2023-02-05T00:53:08.517Z,0.00
2023-02-05T00:54:08.687Z,0.00
2023-02-05T00:55:08.837Z,0.00
2023-02-05T00:56:09.005Z,0.00
2023-02-05T00:57:09.175Z,0.00
2023-02-05T00:58:09.340Z,0.00
2023-02-05T00:59:09.513Z,0.00
2023-02-05T01:00:09.666Z,0.00
2023-02-05T01:01:09.837Z,0.00
2023-02-05T01:02:10.013Z,0.00
2023-02-05T01:03:10.169Z,0.00
2023-02-05T01:04:10.336Z,0.00
2023-02-05T01:05:10.539Z,0.00
2023-02-05T01:06:10.691Z,0.00
2023-02-05T01:07:10.848Z,0.00
2023-02-05T01:08:11.048Z,0.00
2023-02-05T01:09:11.199Z,0.00
2023-02-05T01:10:11.360Z,0.00
2023-02-05T01:11:11.518Z,0.00
2023-02-05T01:12:11.708Z,0.00
2023-02-05T01:13:11.879Z,0.00
2023-02-05T01:14:12.064Z,0.00
2023-02-05T01:15:12.211Z,0.00
2023-02-05T01:16:12.455Z,0.00
2023-02-05T01:17:12.578Z,0.00
2023-02-05T01:18:12.799Z,0.00
2023-02-05T01:19:12.978Z,0.00
2023-02-05T01:20:13.129Z,0.00
2023-02-05T01:21:13.279Z,0.00
2023-02-05T01:22:13.479Z,0.00
2023-02-05T01:23:13.628Z,0.00
2023-02-05T01:24:13.841Z,0.00
2023-02-05T01:25:13.990Z,0.00
2023-02-05T01:26:14.186Z,0.00
2023-02-05T01:27:14.342Z,0.00
2023-02-05T01:28:14.562Z,0.00
2023-02-05T01:29:14.718Z,0.00
2023-02-05T01:30:14.883Z,0.00
2023-02-05T01:31:15.138Z,0.00
2023-02-05T01:32:15.225Z,0.00
2023-02-05T01:33:15.384Z,0.00
2023-02-05T01:34:15.589Z,0.00
2023-02-05T01:35:15.742Z,0.00
2023-02-05T01:36:15.936Z,0.00
2023-02-05T01:37:16.095Z,0.00
2023-02-05T01:38:16.287Z,0.00
2023-02-05T01:39:16.457Z,0.00
2023-02-05T01:40:16.617Z,0.00
2023-02-05T01:41:16.763Z,0.00
2023-02-05T01:42:16.959Z,0.00
2023-02-05T01:43:17.146Z,0.00
2023-02-05T01:44:17.292Z,0.00
2023-02-05T01:45:17.450Z,0.00
2023-02-05T01:46:17.661Z,0.00
2023-02-05T01:47:17.810Z,0.00
2023-02-05T01:48:17.979Z,0.00
2023-02-05T01:49:18.149Z,0.00
2023-02-05T01:50:18.318Z,0.00
2023-02-05T01:51:18.478Z,0.00
2023-02-05T01:52:18.639Z,0.00
2023-02-05T01:53:18.789Z,0.00
2023-02-05T01:54:18.997Z,0.00
2023-02-05T01:55:19.156Z,0.00
2023-02-05T01:56:19.354Z,0.00
2023-02-05T01:57:19.510Z,0.00
2023-02-05T01:58:19.701Z,0.00
2023-02-05T01:59:19.886Z,0.00
2023-02-05T02:00:20.066Z,0.00
2023-02-05T02:01:20.248Z,0.00
2023-02-05T02:02:20.366Z,0.00
2023-02-05T02:03:20.524Z,0.00
2023-02-05T02:04:20.731Z,0.00
2023-02-05T02:05:21.010Z,0.00
2023-02-05T02:06:21.076Z,0.00
2023-02-05T02:07:21.240Z,0.00
2023-02-05T02:08:21.451Z,0.00
2023-02-05T02:09:21.592Z,0.00
2023-02-05T02:10:21.783Z,0.00
2023-02-05T02:11:21.934Z,0.00
2023-02-05T02:12:22.132Z,0.00
2023-02-05T02:13:22.302Z,0.00
2023-02-05T02:14:22.460Z,0.00
2023-02-05T02:15:22.642Z,0.00
2023-02-05T02:16:22.831Z,0.00
2023-02-05T02:17:22.968Z,0.00
2023-02-05T02:18:23.193Z,0.00
2023-02-05T02:19:23.341Z,0.00
2023-02-05T02:20:23.536Z,0.00
2023-02-05T02:21:23.690Z,0.00
2023-02-05T02:22:23.893Z,0.00
2023-02-05T02:23:24.053Z,0.00
2023-02-05T02:24:24.211Z,0.00
2023-02-05T02:25:24.400Z,0.00
2023-02-05T02:26:24.609Z,0.00
2023-02-05T02:27:24.761Z,0.00
2023-02-05T02:28:24.932Z,0.00
2023-02-05T02:29:25.092Z,0.00
2023-02-05T02:30:25.332Z,0.00
2023-02-05T02:31:25.528Z,0.00
2023-02-05T02:32:25.639Z,0.00
2023-02-05T02:33:25.827Z,0.00
2023-02-05T02:34:26.001Z,0.00
2023-02-05T02:35:26.165Z,0.00
2023-02-05T02:36:26.351Z,0.00
2023-02-05T02:37:26.509Z,0.00
2023-02-05T02:38:26.698Z,0.00
2023-02-05T02:39:26.908Z,0.00
2023-02-05T02:40:27.057Z,0.00
2023-02-05T02:41:27.218Z,0.00
2023-02-05T02:42:27.408Z,0.00
2023-02-05T02:43:27.573Z,0.00
2023-02-05T02:44:27.778Z,0.00
2023-02-05T02:45:27.939Z,0.00
2023-02-05T02:46:28.163Z,0.00
2023-02-05T02:47:28.330Z,0.00
2023-02-05T02:48:28.525Z,0.00
2023-02-05T02:49:28.688Z,0.00
2023-02-05T02:50:28.841Z,0.00
2023-02-05T02:51:29.002Z,0.00
2023-02-05T02:52:29.163Z,0.00
2023-02-05T02:53:29.330Z,0.00
2023-02-05T02:54:29.536Z,0.00
2023-02-05T02:55:29.681Z,0.00
2023-02-05T02:56:29.886Z,0.00
2023-02-05T02:57:30.033Z,0.00
2023-02-05T02:58:30.201Z,0.00
2023-02-05T02:59:30.390Z,0.00
2023-02-05T03:00:30.590Z,0.00
2023-02-05T03:01:30.750Z,0.00
2023-02-05T03:02:30.889Z,0.00
2023-02-05T03:03:31.094Z,0.00
2023-02-05T03:04:31.221Z,0.00
2023-02-05T03:05:31.760Z,0.00
2023-02-05T03:06:31.575Z,0.00
2023-02-05T03:07:31.730Z,0.00
2023-02-05T03:08:31.935Z,0.00
2023-02-05T03:09:32.116Z,0.00
2023-02-05T03:10:32.271Z,0.00
2023-02-05T03:11:32.423Z,0.00
2023-02-05T03:12:32.605Z,0.00
2023-02-05T03:13:32.745Z,0.00
2023-02-05T03:14:32.921Z,0.00
2023-02-05T03:15:33.319Z,0.00
2023-02-05T03:16:33.337Z,0.00
2023-02-05T03:17:33.402Z,0.00
2023-02-05T03:18:33.601Z,0.00
2023-02-05T03:19:33.780Z,0.00
2023-02-05T03:20:33.940Z,0.00
2023-02-05T03:21:34.090Z,0.00
2023-02-05T03:22:34.288Z,0.00
2023-02-05T03:23:34.440Z,0.00
2023-02-05T03:24:34.670Z,0.00
2023-02-05T03:25:35.094Z,0.00
2023-02-05T03:26:34.999Z,0.00
2023-02-05T03:27:35.140Z,0.00
2023-02-05T03:28:35.323Z,0.00
2023-02-05T03:29:35.498Z,0.00
2023-02-05T03:30:35.668Z,0.00
2023-02-05T03:31:35.898Z,0.00
2023-02-05T03:32:36.007Z,0.00
2023-02-05T03:33:36.164Z,0.00
2023-02-05T03:34:36.378Z,0.00
2023-02-05T03:35:36.818Z,0.00
2023-02-05T03:36:36.713Z,0.00
2023-02-05T03:37:36.857Z,0.00
2023-02-05T03:38:37.047Z,0.00
2023-02-05T03:39:37.229Z,0.00
2023-02-05T03:40:37.384Z,0.00
2023-02-05T03:41:37.535Z,0.00
2023-02-05T03:42:37.726Z,0.00
2023-02-05T03:43:37.887Z,0.00
2023-02-05T03:44:38.095Z,0.00
2023-02-05T03:45:38.282Z,0.00
2023-02-05T03:46:38.456Z,0.00
2023-02-05T03:47:38.594Z,0.00
2023-02-05T03:48:38.779Z,0.00
2023-02-05T03:49:38.934Z,0.00
2023-02-05T03:50:39.133Z,0.00
2023-02-05T03:51:39.283Z,0.00
2023-02-05T03:52:39.481Z,0.00
2023-02-05T03:53:39.662Z,0.00
2023-02-05T03:54:39.884Z,0.00
2023-02-05T03:55:40.039Z,0.00
2023-02-05T03:56:40.206Z,0.00
2023-02-05T03:57:40.370Z,0.00
2023-02-05T03:58:40.557Z,0.00
2023-02-05T03:59:40.759Z,0.00
2023-02-05T04:00:40.887Z,0.00
2023-02-05T04:01:41.036Z,0.00
2023-02-05T04:02:41.238Z,0.00
2023-02-05T04:03:41.388Z,0.00
2023-02-05T04:04:41.595Z,0.00
2023-02-05T04:05:41.759Z,0.00
2023-02-05T04:06:41.916Z,0.00
2023-02-05T04:07:42.073Z,0.00
2023-02-05T04:08:42.274Z,0.00
2023-02-05T04:09:42.433Z,0.00
2023-02-05T04:10:42.593Z,0.00
2023-02-05T04:11:42.753Z,0.00
2023-02-05T04:12:42.912Z,0.00
2023-02-05T04:13:43.070Z,0.00
2023-02-05T04:14:43.282Z,0.00
2023-02-05T04:15:43.436Z,0.00
2023-02-05T04:16:43.649Z,0.00
2023-02-05T04:17:43.791Z,0.00
2023-02-05T04:18:43.987Z,0.00
2023-02-05T04:19:44.150Z,0.00
2023-02-05T04:20:44.309Z,0.00
2023-02-05T04:21:44.471Z,0.00
2023-02-05T04:22:44.676Z,0.00
2023-02-05T04:23:44.882Z,0.00
2023-02-05T04:24:45.029Z,0.00
2023-02-05T04:25:45.168Z,0.00
2023-02-05T04:26:45.377Z,0.00
2023-02-05T04:27:45.532Z,0.00
2023-02-05T04:28:45.681Z,0.00
2023-02-05T04:29:45.864Z,0.00
2023-02-05T04:30:46.044Z,0.00
2023-02-05T04:31:46.244Z,0.00
2023-02-05T04:32:46.382Z,0.00
2023-02-05T04:33:46.578Z,0.00
2023-02-05T04:34:46.730Z,0.00
2023-02-05T04:35:46.942Z,0.00
2023-02-05T04:36:47.094Z,0.00
2023-02-05T04:37:47.293Z,0.00
2023-02-05T04:38:47.458Z,0.00
2023-02-05T04:39:47.610Z,0.00
2023-02-05T04:40:47.771Z,0.00
2023-02-05T04:41:47.933Z,0.00
2023-02-05T04:42:48.104Z,0.00
2023-02-05T04:43:48.261Z,0.00
2023-02-05T04:44:48.410Z,0.00
2023-02-05T04:45:48.642Z,0.00
2023-02-05T04:46:48.782Z,0.00
2023-02-05T04:47:48.978Z,0.00
2023-02-05T04:48:49.154Z,0.00
2023-02-05T04:49:49.301Z,0.00
2023-02-05T04:50:49.473Z,0.00
2023-02-05T04:51:49.631Z,0.00
2023-02-05T04:52:49.810Z,0.00
2023-02-05T04:53:49.976Z,0.00
2023-02-05T04:54:50.121Z,0.00
2023-02-05T04:55:50.330Z,0.00
2023-02-05T04:56:50.489Z,0.00
2023-02-05T04:57:52.576Z,0.00
2023-02-05T04:58:50.829Z,0.00
2023-02-05T04:59:50.991Z,0.00
2023-02-05T05:00:51.178Z,0.00
2023-02-05T05:01:51.318Z,0.00
2023-02-05T05:02:51.480Z,0.00
2023-02-05T05:03:51.656Z,0.00
2023-02-05T05:04:51.824Z,0.00
2023-02-05T05:05:52.033Z,0.00
2023-02-05T05:06:52.179Z,0.00
2023-02-05T05:07:52.338Z,0.00
2023-02-05T05:08:52.508Z,0.00
2023-02-05T05:09:52.711Z,0.00
2023-02-05T05:10:52.844Z,0.00
2023-02-05T05:11:53.040Z,0.00
2023-02-05T05:12:53.227Z,0.00
2023-02-05T05:13:53.390Z,0.00
2023-02-05T05:14:53.567Z,0.00
2023-02-05T05:15:53.773Z,0.00
2023-02-05T05:16:53.899Z,0.00
2023-02-05T05:17:54.057Z,0.00
2023-02-05T05:18:54.205Z,0.00
2023-02-05T05:19:54.423Z,0.00
2023-02-05T05:20:54.596Z,0.00
2023-02-05T05:21:54.766Z,0.00
2023-02-05T05:22:54.915Z,0.00
2023-02-05T05:23:55.083Z,0.00
2023-02-05T05:24:55.236Z,0.00
2023-02-05T05:25:55.447Z,0.00
2023-02-05T05:26:55.605Z,0.00
2023-02-05T05:27:55.823Z,0.00
2023-02-05T05:28:55.966Z,0.00
2023-02-05T05:29:56.166Z,0.00
2023-02-05T05:30:56.318Z,0.00
2023-02-05T05:31:56.476Z,0.00
2023-02-05T05:32:56.627Z,0.00
2023-02-05T05:33:56.784Z,0.00
2023-02-05T05:34:56.980Z,0.00
2023-02-05T05:35:57.124Z,0.00
2023-02-05T05:36:57.277Z,0.00
2023-02-05T05:37:57.475Z,0.00
2023-02-05T05:38:57.638Z,0.00
2023-02-05T05:39:57.807Z,0.00
2023-02-05T05:40:57.973Z,0.00
2023-02-05T05:41:58.124Z,0.00
2023-02-05T05:42:58.283Z,0.00
2023-02-05T05:43:58.474Z,0.00
2023-02-05T05:44:58.673Z,0.00
2023-02-05T05:45:58.863Z,0.00
2023-02-05T05:46:59.008Z,0.00
2023-02-05T05:47:59.203Z,0.00
2023-02-05T05:48:59.353Z,0.00
2023-02-05T05:49:59.583Z,0.00
2023-02-05T05:50:59.724Z,0.00
2023-02-05T05:51:59.884Z,0.00
2023-02-05T05:53:00.034Z,0.00
2023-02-05T05:54:00.234Z,0.00
2023-02-05T05:55:00.394Z,0.00
2023-02-05T05:56:00.579Z,0.00
2023-02-05T05:57:00.740Z,0.00
2023-02-05T05:58:00.928Z,0.00
2023-02-05T05:59:01.093Z,0.00
2023-02-05T06:00:01.282Z,0.00
2023-02-05T06:01:01.471Z,0.00
2023-02-05T06:02:01.607Z,0.00
2023-02-05T06:03:01.779Z,0.00
2023-02-05T06:04:04.157Z,0.00
2023-02-05T06:05:02.123Z,0.00
2023-02-05T06:06:02.336Z,4.00
2023-02-05T06:07:02.510Z,0.00
2023-02-05T06:08:02.669Z,0.00
2023-02-05T06:09:02.848Z,4.00
2023-02-05T06:10:03.001Z,0.00
2023-02-05T06:11:03.164Z,4.00
2023-02-05T06:12:03.334Z,4.00
2023-02-05T06:13:03.493Z,0.00
2023-02-05T06:14:03.678Z,4.00
2023-02-05T06:15:03.819Z,8.00
2023-02-05T06:16:04.191Z,4.00
2023-02-05T06:17:04.191Z,8.00
2023-02-05T06:18:04.379Z,8.00
2023-02-05T06:19:04.539Z,8.00
2023-02-05T06:20:04.736Z,12.00
2023-02-05T06:21:04.877Z,12.00
2023-02-05T06:22:05.064Z,16.00
2023-02-05T06:23:05.231Z,20.00
2023-02-05T06:24:05.414Z,20.00
2023-02-05T06:25:05.579Z,24.00
2023-02-05T06:26:05.808Z,32.00
2023-02-05T06:27:05.963Z,36.00
2023-02-05T06:28:06.131Z,40.00
2023-02-05T06:29:06.309Z,48.00
2023-02-05T06:30:06.502Z,56.00
2023-02-05T06:31:06.763Z,60.00
2023-02-05T06:32:06.849Z,72.00
2023-02-05T06:33:06.997Z,76.00
2023-02-05T06:34:07.171Z,88.00
2023-02-05T06:35:07.355Z,96.00
2023-02-05T06:36:07.529Z,104.00
2023-02-05T06:37:07.709Z,112.00
2023-02-05T06:38:07.905Z,120.00
2023-02-05T06:39:08.078Z,132.00
2023-02-05T06:40:08.290Z,144.00
2023-02-05T06:41:08.447Z,160.00
2023-02-05T06:42:08.593Z,172.00
2023-02-05T06:43:08.796Z,180.00
2023-02-05T06:44:08.967Z,196.00
2023-02-05T06:45:09.153Z,204.00
2023-02-05T06:46:09.431Z,208.00
2023-02-05T06:47:09.518Z,212.00
2023-02-05T06:48:09.707Z,224.00
2023-02-05T06:49:09.896Z,232.00
2023-02-05T06:50:10.104Z,256.00
2023-02-05T06:51:10.257Z,276.00
2023-02-05T06:52:10.427Z,304.00
2023-02-05T06:53:11.903Z,324.00
2023-02-05T06:54:10.787Z,344.00
2023-02-05T06:55:10.976Z,352.00
2023-02-05T06:56:11.186Z,368.00
2023-02-05T06:57:11.291Z,376.00
2023-02-05T06:58:11.475Z,384.00
2023-02-05T06:59:11.660Z,388.00
2023-02-05T07:00:11.846Z,392.00
2023-02-05T07:01:12.048Z,404.00
2023-02-05T07:02:12.227Z,424.00
2023-02-05T07:03:12.388Z,444.00
2023-02-05T07:04:12.546Z,464.00
2023-02-05T07:05:12.746Z,480.00
2023-02-05T07:06:12.947Z,492.00
2023-02-05T07:07:13.056Z,512.00
2023-02-05T07:08:13.266Z,532.00
2023-02-05T07:09:13.398Z,556.00
2023-02-05T07:10:13.603Z,580.00
2023-02-05T07:11:13.777Z,600.00
2023-02-05T07:12:13.956Z,628.00
2023-02-05T07:13:14.138Z,652.00
2023-02-05T07:14:14.317Z,684.00
2023-02-05T07:15:14.499Z,724.00
2023-02-05T07:16:14.743Z,756.00
2023-02-05T07:17:14.878Z,772.00
2023-02-05T07:18:15.069Z,796.00
2023-02-05T07:19:15.248Z,820.00
2023-02-05T07:20:15.439Z,848.00
2023-02-05T07:21:15.612Z,872.00
2023-02-05T07:22:15.788Z,900.00
2023-02-05T07:23:15.967Z,920.00
2023-02-05T07:24:16.155Z,944.00
2023-02-05T07:25:16.337Z,960.00
2023-02-05T07:26:16.576Z,968.00
2023-02-05T07:27:16.707Z,980.00
2023-02-05T07:28:16.964Z,980.00
2023-02-05T07:29:17.048Z,984.00
2023-02-05T07:30:17.245Z,992.00
2023-02-05T07:31:17.576Z,1008.00
2023-02-05T07:32:17.601Z,1028.00
2023-02-05T07:33:17.746Z,1052.00
2023-02-05T07:34:17.907Z,1076.00
2023-02-05T07:35:18.077Z,1100.00
2023-02-05T07:36:18.245Z,1120.00
2023-02-05T07:37:19.978Z,1136.00
2023-02-05T07:38:18.584Z,1164.00
2023-02-05T07:39:18.742Z,1192.00
2023-02-05T07:40:18.902Z,1228.00
2023-02-05T07:41:19.087Z,1272.00
2023-02-05T07:42:19.258Z,1324.00
2023-02-05T07:43:19.416Z,1376.00
2023-02-05T07:44:19.580Z,1436.00
2023-02-05T07:45:19.777Z,1492.00
2023-02-05T07:46:19.965Z,1556.00
2023-02-05T07:47:20.089Z,1624.00
2023-02-05T07:48:20.273Z,1716.00
2023-02-05T07:49:20.447Z,1824.00
2023-02-05T07:50:20.627Z,1948.00
2023-02-05T07:51:20.839Z,2072.00
2023-02-05T07:52:20.968Z,2188.00
2023-02-05T07:53:21.146Z,2308.00
2023-02-05T07:54:21.336Z,2408.00
2023-02-05T07:55:21.527Z,2504.00
2023-02-05T07:56:21.834Z,2600.00
2023-02-05T07:57:21.870Z,2700.00
2023-02-05T07:58:22.056Z,2796.00
2023-02-05T07:59:22.203Z,2876.00
2023-02-05T08:00:22.388Z,2948.00
2023-02-05T08:01:22.627Z,3000.00
2023-02-05T08:02:22.767Z,3040.00
2023-02-05T08:03:23.436Z,3072.00
2023-02-05T08:04:23.151Z,3092.00
2023-02-05T08:05:23.263Z,3116.00
2023-02-05T08:06:23.485Z,3136.00
2023-02-05T08:07:23.610Z,3144.00
2023-02-05T08:08:23.781Z,3160.00
2023-02-05T08:09:23.964Z,3180.00
2023-02-05T08:10:24.162Z,3204.00
2023-02-05T08:11:24.340Z,3244.00
2023-02-05T08:12:24.560Z,3284.00
2023-02-05T08:13:24.705Z,3308.00
2023-02-05T08:14:24.881Z,3332.00
2023-02-05T08:15:25.065Z,3356.00
2023-02-05T08:16:25.311Z,3380.00
2023-02-05T08:17:25.422Z,3388.00
2023-02-05T08:18:25.605Z,3392.00
2023-02-05T08:19:25.783Z,3376.00
2023-02-05T08:20:25.965Z,3352.00
2023-02-05T08:21:26.160Z,3344.00
2023-02-05T08:22:26.314Z,3352.00
2023-02-05T08:23:26.481Z,3372.00
2023-02-05T08:24:26.671Z,3400.00
2023-02-05T08:25:26.841Z,3432.00
2023-02-05T08:26:27.099Z,3448.00
2023-02-05T08:27:29.329Z,3452.00
2023-02-05T08:28:27.361Z,3448.00
2023-02-05T08:29:27.540Z,3456.00
2023-02-05T08:30:27.830Z,3452.00
2023-02-05T08:31:27.956Z,3440.00
2023-02-05T08:32:28.068Z,3412.00
2023-02-05T08:33:28.242Z,3360.00
2023-02-05T08:34:28.432Z,3296.00
2023-02-05T08:35:28.606Z,3240.00
2023-02-05T08:36:28.828Z,3200.00
2023-02-05T08:37:28.951Z,3172.00
2023-02-05T08:38:29.130Z,3144.00
2023-02-05T08:39:29.308Z,3120.00
2023-02-05T08:40:29.488Z,3092.00
2023-02-05T08:41:29.695Z,3076.00
2023-02-05T08:42:29.874Z,3068.00
2023-02-05T08:43:30.039Z,3052.00
2023-02-05T08:44:30.220Z,3052.00
2023-02-05T08:45:30.458Z,3056.00
2023-02-05T08:46:40.327Z,3056.00
2023-02-05T08:47:31.729Z,3068.00
2023-02-05T08:48:30.918Z,3092.00
2023-02-05T08:49:31.121Z,3128.00
2023-02-05T08:50:31.285Z,3172.00
2023-02-05T08:51:31.504Z,3220.00
2023-02-05T08:52:31.658Z,3268.00
2023-02-05T08:53:31.843Z,3308.00
2023-02-05T08:54:32.016Z,3352.00
2023-02-05T08:55:32.490Z,3388.00
2023-02-05T08:56:32.389Z,3412.00
2023-02-05T08:57:32.556Z,3424.00
2023-02-05T08:58:32.726Z,3444.00
2023-02-05T08:59:32.905Z,3460.00
2023-02-05T09:00:33.092Z,3476.00
2023-02-05T09:01:33.356Z,3496.00
2023-02-05T09:02:33.444Z,3520.00
2023-02-05T09:03:33.633Z,3548.00
2023-02-05T09:04:33.829Z,3580.00
2023-02-05T09:05:34.307Z,3612.00
2023-02-05T09:06:34.172Z,3656.00
2023-02-05T09:07:34.315Z,3692.00
2023-02-05T09:08:34.495Z,3720.00
2023-02-05T09:09:34.674Z,3756.00
2023-02-05T09:10:34.854Z,3772.00
2023-02-05T09:11:35.055Z,3780.00
2023-02-05T09:12:35.213Z,3796.00
2023-02-05T09:13:35.405Z,3816.00
2023-02-05T09:14:35.574Z,3836.00
2023-02-05T09:15:36.166Z,3860.00
2023-02-05T09:16:35.993Z,3892.00
2023-02-05T09:17:36.074Z,3928.00
2023-02-05T09:18:36.252Z,3964.00
2023-02-05T09:19:36.433Z,4000.00
2023-02-05T09:20:36.631Z,4044.00
2023-02-05T09:21:36.845Z,4092.00
2023-02-05T09:22:36.972Z,4144.00
2023-02-05T09:23:37.153Z,4184.00
2023-02-05T09:24:37.325Z,4232.00
2023-02-05T09:25:37.513Z,4276.00
2023-02-05T09:26:37.704Z,4304.00
2023-02-05T09:27:37.894Z,4340.00
2023-02-05T09:28:38.069Z,4380.00
2023-02-05T09:29:38.246Z,4420.00
2023-02-05T09:30:38.542Z,4476.00
2023-02-05T09:31:38.749Z,4528.00
2023-02-05T09:32:38.780Z,4568.00
2023-02-05T09:33:38.964Z,4612.00
2023-02-05T09:34:39.147Z,4648.00
2023-02-05T09:35:39.322Z,4660.00
2023-02-05T09:36:39.505Z,4672.00
2023-02-05T09:37:39.708Z,4692.00
2023-02-05T09:38:39.872Z,4720.00
2023-02-05T09:40:41.242Z,4808.00
2023-02-05T09:41:40.441Z,4852.00
2023-02-05T09:42:40.632Z,4888.00
2023-02-05T09:43:40.744Z,4928.00
2023-02-05T09:44:40.925Z,4972.00
2023-02-05T09:45:41.330Z,5024.00
2023-02-05T09:46:41.314Z,5080.00
2023-02-05T09:47:41.453Z,5128.00
2023-02-05T09:48:41.650Z,5180.00
2023-02-05T09:49:41.820Z,5244.00
2023-02-05T09:50:41.984Z,5300.00
2023-02-05T09:51:42.183Z,5380.00
2023-02-05T09:52:42.345Z,5488.00
2023-02-05T09:53:42.551Z,5600.00
2023-02-05T09:54:42.708Z,5696.00
2023-02-05T09:55:42.890Z,5796.00
2023-02-05T09:56:43.078Z,5908.00
2023-02-05T09:57:43.267Z,6012.00
2023-02-05T09:58:43.439Z,6100.00
2023-02-05T09:59:43.610Z,6176.00
2023-02-05T10:00:43.792Z,6252.00
2023-02-05T10:01:44.017Z,6332.00
2023-02-05T10:02:44.143Z,6416.00
2023-02-05T10:03:44.316Z,6496.00
2023-02-05T10:04:44.509Z,6548.00
2023-02-05T10:05:44.677Z,6592.00
2023-02-05T10:06:44.879Z,6616.00
2023-02-05T10:07:45.019Z,6620.00
2023-02-05T10:08:45.202Z,6628.00
2023-02-05T10:09:45.397Z,6624.00
2023-02-05T10:10:45.588Z,6636.00
2023-02-05T10:11:45.747Z,6656.00
2023-02-05T10:12:45.894Z,6700.00
2023-02-05T10:13:46.077Z,6752.00
2023-02-05T10:14:48.971Z,6820.00
2023-02-05T10:15:46.447Z,6884.00
2023-02-05T10:16:46.584Z,6940.00
2023-02-05T10:17:46.767Z,6992.00
2023-02-05T10:18:46.963Z,7028.00
2023-02-05T10:19:47.125Z,7064.00
2023-02-05T10:20:47.310Z,7096.00
2023-02-05T10:21:47.509Z,7116.00
2023-02-05T10:22:47.675Z,7112.00
2023-02-05T10:23:47.861Z,7076.00
2023-02-05T10:24:48.033Z,7032.00
2023-02-05T10:25:48.213Z,6992.00
2023-02-05T10:26:48.411Z,6972.00
2023-02-05T10:27:48.597Z,6960.00
2023-02-05T10:28:48.721Z,6964.00
2023-02-05T10:29:48.904Z,6968.00
2023-02-05T10:30:49.195Z,6964.00
2023-02-05T10:31:49.336Z,6964.00
2023-02-05T10:32:49.405Z,6984.00
2023-02-05T10:33:49.588Z,7024.00
2023-02-05T10:34:49.770Z,7052.00
2023-02-05T10:35:49.937Z,7068.00
2023-02-05T10:36:50.175Z,7080.00
2023-02-05T10:37:50.285Z,7072.00
2023-02-05T10:38:50.457Z,7052.00
2023-02-05T10:39:50.635Z,7036.00
2023-02-05T10:40:50.816Z,7016.00
2023-02-05T10:41:51.021Z,6980.00
2023-02-05T10:42:51.196Z,6908.00
2023-02-05T10:43:51.364Z,6840.00
2023-02-05T10:44:51.543Z,6764.00
2023-02-05T10:45:51.732Z,6696.00
2023-02-05T10:46:51.919Z,6632.00
2023-02-05T10:47:52.104Z,6572.00
2023-02-05T10:48:52.281Z,6532.00
2023-02-05T10:49:53.325Z,6512.00
2023-02-05T10:50:52.642Z,6504.00
2023-02-05T10:51:52.839Z,6516.00
2023-02-05T10:52:53.007Z,6548.00
2023-02-05T10:53:53.318Z,6604.00
2023-02-05T10:54:53.341Z,6700.00
2023-02-05T10:55:53.602Z,6780.00
2023-02-05T10:56:53.702Z,6864.00
2023-02-05T10:57:53.880Z,6924.00
2023-02-05T10:58:54.051Z,6988.00
2023-02-05T10:59:54.232Z,7020.00
2023-02-05T11:00:54.402Z,7064.00
2023-02-05T11:01:54.628Z,7108.00
2023-02-05T11:02:54.827Z,7152.00
2023-02-05T11:03:54.939Z,7184.00
2023-02-05T11:04:55.110Z,7192.00
2023-02-05T11:05:55.292Z,7180.00
2023-02-05T11:06:55.482Z,7160.00
2023-02-05T11:07:55.633Z,7168.00
2023-02-05T11:08:55.804Z,7192.00
2023-02-05T11:09:55.984Z,7228.00
2023-02-05T11:10:56.171Z,7280.00
2023-02-05T11:11:56.377Z,7332.00
2023-02-05T11:12:56.512Z,7384.00
2023-02-05T11:13:56.689Z,7392.00
2023-02-05T11:14:56.859Z,7404.00
2023-02-05T11:15:57.072Z,7408.00
2023-02-05T11:16:57.250Z,7436.00
2023-02-05T11:17:57.433Z,7452.00
2023-02-05T11:18:57.624Z,7464.00
2023-02-05T11:19:57.788Z,7468.00
2023-02-05T11:20:57.958Z,7472.00
2023-02-05T11:21:58.159Z,7472.00
2023-02-05T11:22:58.326Z,7468.00
2023-02-05T11:23:58.508Z,7456.00
2023-02-05T11:24:58.678Z,7448.00
2023-02-05T11:25:58.871Z,7444.00
2023-02-05T11:26:59.066Z,7444.00
2023-02-05T11:27:59.287Z,7448.00
2023-02-05T11:28:59.395Z,7460.00
2023-02-05T11:29:59.575Z,7464.00
2023-02-05T11:31:00.245Z,7464.00
2023-02-05T11:32:00.057Z,7444.00
2023-02-05T11:33:00.107Z,7416.00
2023-02-05T11:34:00.267Z,7364.00
2023-02-05T11:35:00.449Z,7312.00
2023-02-05T11:36:00.641Z,7256.00
2023-02-05T11:37:00.826Z,7208.00
2023-02-05T11:38:01.000Z,7168.00
2023-02-05T11:39:01.174Z,7128.00
2023-02-05T11:40:01.354Z,7080.00
2023-02-05T11:41:01.551Z,7036.00
2023-02-05T11:42:01.727Z,7000.00
2023-02-05T11:43:01.894Z,6956.00
2023-02-05T11:44:02.079Z,6916.00
2023-02-05T11:45:02.251Z,6868.00
2023-02-05T11:46:02.426Z,6820.00
2023-02-05T11:47:02.648Z,6784.00
2023-02-05T11:48:02.766Z,6760.00
2023-02-05T11:49:02.947Z,6748.00
2023-02-05T11:50:03.124Z,6744.00
2023-02-05T11:51:03.297Z,6748.00
2023-02-05T11:52:03.493Z,6748.00
2023-02-05T11:53:03.654Z,6736.00
2023-02-05T11:54:03.837Z,6716.00
2023-02-05T11:55:04.017Z,6692.00
2023-02-05T11:56:04.207Z,6660.00
2023-02-05T11:57:04.405Z,6644.00
2023-02-05T11:58:04.575Z,6620.00
2023-02-05T11:59:04.755Z,6600.00
2023-02-05T12:00:04.944Z,6600.00
2023-02-05T12:01:05.129Z,6592.00
2023-02-05T12:02:05.365Z,6588.00
2023-02-05T12:03:05.517Z,6588.00
2023-02-05T12:04:05.670Z,6592.00
2023-02-05T12:05:05.846Z,6596.00
2023-02-05T12:06:06.035Z,6600.00
2023-02-05T12:07:06.245Z,6608.00
2023-02-05T12:08:08.874Z,6604.00
2023-02-05T12:09:06.556Z,6588.00
2023-02-05T12:10:06.752Z,6568.00
2023-02-05T12:11:06.897Z,6536.00
2023-02-05T12:12:07.096Z,6488.00
2023-02-05T12:13:07.246Z,6448.00
2023-02-05T12:14:07.401Z,6424.00
2023-02-05T12:15:07.579Z,6424.00
2023-02-05T12:16:07.763Z,6448.00
2023-02-05T12:17:07.937Z,6500.00
2023-02-05T12:18:08.127Z,6544.00
2023-02-05T12:19:08.278Z,6584.00
2023-02-05T12:20:08.457Z,6608.00
2023-02-05T12:21:08.638Z,6616.00
2023-02-05T12:22:08.836Z,6600.00
2023-02-05T12:23:09.008Z,6588.00
2023-02-05T12:24:09.186Z,6552.00
2023-02-05T12:25:09.359Z,6496.00
2023-02-05T12:26:09.545Z,6408.00
2023-02-05T12:27:09.738Z,6328.00
2023-02-05T12:28:10.049Z,6264.00
2023-02-05T12:29:10.081Z,6224.00
2023-02-05T12:30:10.263Z,6176.00
2023-02-05T12:31:10.456Z,6100.00
2023-02-05T12:32:10.613Z,6020.00
2023-02-05T12:33:10.781Z,5924.00
2023-02-05T12:34:10.960Z,5828.00
2023-02-05T12:35:11.132Z,5720.00
2023-02-05T12:36:11.311Z,5592.00
2023-02-05T12:37:11.505Z,5456.00
2023-02-05T12:38:13.512Z,5312.00
2023-02-05T12:39:12.871Z,5192.00
2023-02-05T12:40:12.053Z,5100.00
2023-02-05T12:41:12.229Z,5028.00
2023-02-05T12:42:12.447Z,4956.00
2023-02-05T12:43:12.570Z,4880.00
2023-02-05T12:44:12.759Z,4796.00
2023-02-05T12:45:12.937Z,4692.00
2023-02-05T12:46:13.144Z,4592.00